createdAt,value
2023-03-26T00:02:04.266Z,0.13
2023-03-26T00:04:33.800Z,0.13
2023-03-26T00:07:03.451Z,0.30
2023-03-26T00:09:31.127Z,0.10
2023-03-26T00:11:59.192Z,0.40
2023-03-26T00:14:27.181Z,0.40
2023-03-26T00:16:55.256Z,0.13
2023-03-26T00:19:23.434Z,0.28
2023-03-26T00:21:51.646Z,0.25
2023-03-26T00:24:21.099Z,0.10
2023-03-26T00:26:53.346Z,0.10
2023-03-26T00:29:23.094Z,0.28
2023-03-26T00:31:51.110Z,0.10
2023-03-26T00:34:19.254Z,0.10
2023-03-26T00:36:47.829Z,0.65
2023-03-26T00:39:17.978Z,0.13
2023-03-26T00:41:47.273Z,0.17
2023-03-26T00:44:15.185Z,0.45
2023-03-26T00:46:43.229Z,0.50
2023-03-26T00:49:14.664Z,0.28
2023-03-26T00:51:43.463Z,0.40
2023-03-26T00:54:11.914Z,0.55
2023-03-26T00:56:39.854Z,0.28
2023-03-26T00:59:09.310Z,0.20
2023-03-26T01:01:37.940Z,0.20
2023-03-26T01:04:31.034Z,0.20
2023-03-26T01:07:02.991Z,0.30
2023-03-26T01:09:35.014Z,0.30
2023-03-26T01:12:05.387Z,0.15
2023-03-26T01:14:34.573Z,0.35
2023-03-26T01:17:03.759Z,0.30
2023-03-26T01:19:38.297Z,0.10
2023-03-26T01:22:06.670Z,0.38
2023-03-26T01:24:36.128Z,0.40
2023-03-26T01:27:18.899Z,0.60
2023-03-26T01:29:54.198Z,0.10
2023-03-26T01:32:35.924Z,0.30
2023-03-26T01:35:17.279Z,0.30
2023-03-26T01:38:03.033Z,0.20
2023-03-26T01:40:43.046Z,0.20
2023-03-26T01:43:17.270Z,0.40
2023-03-26T01:45:49.075Z,0.40
2023-03-26T01:48:17.741Z,0.10
2023-03-26T01:50:46.445Z,0.10
2023-03-26T01:53:15.731Z,0.20
2023-03-26T01:55:56.360Z,0.10
2023-03-26T01:58:31.739Z,0.30
2023-03-26T02:01:12.719Z,0.88
2023-03-26T02:03:46.854Z,0.30
2023-03-26T02:06:19.961Z,0.10
2023-03-26T02:08:53.025Z,0.20
2023-03-26T02:11:23.286Z,0.20
2023-03-26T02:13:52.282Z,0.20
2023-03-26T02:16:21.600Z,0.25
2023-03-26T02:18:55.861Z,0.30
2023-03-26T02:21:26.114Z,0.20
2023-03-26T02:23:58.164Z,0.43
2023-03-26T02:26:27.441Z,0.20
2023-03-26T02:28:55.322Z,0.35
2023-03-26T02:31:26.559Z,0.40
2023-03-26T02:33:55.617Z,0.40
2023-03-26T02:36:27.600Z,0.30
2023-03-26T02:38:57.851Z,0.50
2023-03-26T02:41:27.303Z,0.30
2023-03-26T02:44:11.735Z,0.55
2023-03-26T02:46:39.334Z,0.30
2023-03-26T02:49:07.303Z,0.35
2023-03-26T02:51:35.949Z,0.45
2023-03-26T02:54:03.852Z,0.50
2023-03-26T02:56:32.885Z,0.40
2023-03-26T02:59:00.886Z,0.30
2023-03-26T03:01:31.195Z,0.20
2023-03-26T03:03:58.867Z,0.25
2023-03-26T03:06:26.560Z,0.28
2023-03-26T03:08:54.637Z,0.30
2023-03-26T03:11:24.617Z,0.20
2023-03-26T03:13:56.851Z,0.57
2023-03-26T03:16:25.061Z,0.52
2023-03-26T03:18:57.564Z,0.40
2023-03-26T03:21:27.782Z,0.30
2023-03-26T03:23:55.893Z,0.30
2023-03-26T03:26:30.201Z,0.40
2023-03-26T03:28:59.661Z,0.20
2023-03-26T03:31:28.399Z,0.35
2023-03-26T03:33:56.392Z,0.40
2023-03-26T03:36:27.607Z,0.47
2023-03-26T03:38:55.287Z,0.30
2023-03-26T03:41:23.239Z,0.63
2023-03-26T03:43:52.005Z,0.32
2023-03-26T03:46:20.986Z,0.57
2023-03-26T03:48:49.866Z,0.73
2023-03-26T03:51:18.624Z,0.13
2023-03-26T03:53:47.332Z,0.30
2023-03-26T03:56:17.508Z,0.30
2023-03-26T03:58:45.782Z,0.40
2023-03-26T04:01:13.815Z,0.80
2023-03-26T04:03:46.949Z,1.00
2023-03-26T04:06:19.097Z,1.80
2023-03-26T04:08:47.096Z,0.80
2023-03-26T04:11:15.308Z,0.50
2023-03-26T04:13:43.305Z,0.30
2023-03-26T04:16:11.914Z,0.50
2023-03-26T04:18:40.117Z,0.43
2023-03-26T04:21:09.278Z,0.40
2023-03-26T04:23:37.109Z,1.58
2023-03-26T04:26:10.440Z,1.20
2023-03-26T04:28:46.549Z,1.08
2023-03-26T04:31:16.845Z,1.15
2023-03-26T04:33:47.738Z,1.10
2023-03-26T04:36:18.289Z,1.20
2023-03-26T04:38:49.321Z,0.80
2023-03-26T04:41:17.511Z,1.02
2023-03-26T04:43:50.884Z,0.30
2023-03-26T04:46:21.717Z,0.50
2023-03-26T04:48:50.148Z,0.50
2023-03-26T04:51:22.061Z,0.50
2023-03-26T04:53:53.051Z,0.55
2023-03-26T04:56:32.386Z,0.52
2023-03-26T04:59:02.366Z,0.52
2023-03-26T05:01:30.836Z,0.40
2023-03-26T05:03:59.792Z,0.40
2023-03-26T05:06:30.451Z,0.30
2023-03-26T05:08:58.333Z,0.40
2023-03-26T05:11:26.457Z,0.80
2023-03-26T05:13:54.191Z,0.38
2023-03-26T05:16:22.576Z,0.60
2023-03-26T05:18:51.497Z,0.57
2023-03-26T05:21:19.136Z,0.52
2023-03-26T05:23:48.194Z,0.70
2023-03-26T05:26:15.841Z,1.95
2023-03-26T05:28:43.692Z,1.10
2023-03-26T05:31:11.687Z,0.45
2023-03-26T05:33:39.946Z,1.10
2023-03-26T05:36:09.532Z,0.80
2023-03-26T05:38:37.415Z,0.80
2023-03-26T05:41:08.449Z,1.33
2023-03-26T05:43:36.913Z,0.63
2023-03-26T05:46:05.576Z,0.65
2023-03-26T05:48:33.562Z,0.98
2023-03-26T05:51:01.573Z,0.98
2023-03-26T05:53:29.414Z,0.90
2023-03-26T05:55:58.662Z,0.80
2023-03-26T05:58:28.730Z,0.60
2023-03-26T06:00:59.991Z,0.63
2023-03-26T06:03:28.320Z,0.60
2023-03-26T06:05:56.622Z,0.60
2023-03-26T06:08:24.455Z,0.57
2023-03-26T06:10:58.664Z,0.40
2023-03-26T06:13:28.563Z,0.65
2023-03-26T06:15:56.288Z,1.23
2023-03-26T06:18:24.108Z,1.13
2023-03-26T06:20:53.265Z,0.85
2023-03-26T06:23:22.899Z,0.70
2023-03-26T06:25:50.605Z,1.00
2023-03-26T06:28:18.527Z,1.17
2023-03-26T06:30:47.622Z,0.87
2023-03-26T06:33:15.674Z,0.30
2023-03-26T06:35:44.227Z,1.20
2023-03-26T06:38:12.251Z,0.90
2023-03-26T06:40:39.867Z,0.60
2023-03-26T06:43:10.877Z,0.40
2023-03-26T06:45:39.650Z,0.40
2023-03-26T06:48:08.950Z,0.45
2023-03-26T06:50:36.554Z,0.50
2023-03-26T06:53:04.292Z,0.70
2023-03-26T06:55:32.253Z,0.70
2023-03-26T06:57:59.800Z,0.80
2023-03-26T07:00:27.516Z,2.33
2023-03-26T07:02:55.162Z,0.60
2023-03-26T07:05:24.115Z,1.13
2023-03-26T07:07:51.888Z,1.03
2023-03-26T07:10:19.600Z,0.82
2023-03-26T07:12:47.306Z,1.33
2023-03-26T07:15:15.063Z,2.47
2023-03-26T07:17:42.766Z,1.40
2023-03-26T07:20:11.671Z,0.70
2023-03-26T07:22:41.756Z,1.20
2023-03-26T07:25:11.141Z,0.77
2023-03-26T07:27:46.858Z,0.98
2023-03-26T07:30:16.710Z,0.95
2023-03-26T07:32:52.270Z,0.50
2023-03-26T07:35:24.680Z,0.55
2023-03-26T07:38:06.198Z,0.47
2023-03-26T07:40:50.132Z,0.80
2023-03-26T07:43:31.026Z,1.13
2023-03-26T07:45:59.159Z,0.67
2023-03-26T07:48:31.114Z,0.60
2023-03-26T07:51:00.408Z,0.75
2023-03-26T07:53:30.119Z,0.40
2023-03-26T07:56:03.686Z,0.50
2023-03-26T07:58:52.948Z,0.67
2023-03-26T08:01:36.427Z,1.08
2023-03-26T08:04:26.181Z,0.82
2023-03-26T08:06:59.299Z,0.60
2023-03-26T08:09:36.080Z,0.98
2023-03-26T08:12:10.670Z,0.70
2023-03-26T08:14:49.288Z,1.10
2023-03-26T08:17:22.933Z,0.90
2023-03-26T08:20:02.382Z,0.93
2023-03-26T08:22:36.958Z,0.80
2023-03-26T08:25:18.684Z,0.70
2023-03-26T08:27:55.951Z,0.43
2023-03-26T08:30:25.445Z,0.60
2023-03-26T08:32:57.385Z,0.50
2023-03-26T08:35:25.631Z,0.85
2023-03-26T08:37:53.478Z,0.73
2023-03-26T08:40:50.638Z,0.30
2023-03-26T08:44:02.457Z,0.50
2023-03-26T08:46:49.250Z,0.43
2023-03-26T08:49:44.016Z,0.38
2023-03-26T08:52:35.940Z,0.60
2023-03-26T08:55:39.235Z,0.28
2023-03-26T08:58:43.832Z,0.30
2023-03-26T09:01:31.971Z,0.25
2023-03-26T09:04:41.994Z,0.68
2023-03-26T09:07:55.916Z,0.53
2023-03-26T09:10:52.885Z,0.50
2023-03-26T09:13:58.139Z,0.40
2023-03-26T09:16:51.001Z,0.50
2023-03-26T09:19:52.079Z,0.52
2023-03-26T09:22:49.132Z,0.40
2023-03-26T09:25:30.504Z,0.30
2023-03-26T09:28:22.409Z,0.45
2023-03-26T09:31:13.492Z,0.30
2023-03-26T09:34:00.393Z,0.50
2023-03-26T09:36:54.199Z,0.50
2023-03-26T09:39:40.096Z,0.43
2023-03-26T09:42:21.068Z,0.68
2023-03-26T09:45:20.040Z,0.38
2023-03-26T09:48:18.922Z,0.50
2023-03-26T09:51:08.493Z,0.70
2023-03-26T09:53:53.823Z,0.60
2023-03-26T09:56:30.788Z,0.93
2023-03-26T09:59:22.660Z,0.65
2023-03-26T10:01:57.859Z,0.85
2023-03-26T10:04:46.909Z,0.87
2023-03-26T10:07:33.469Z,1.05
2023-03-26T10:10:05.526Z,0.82
2023-03-26T10:12:38.711Z,0.82
2023-03-26T10:15:22.828Z,0.55
2023-03-26T10:18:01.768Z,0.67
2023-03-26T10:20:50.414Z,0.95
2023-03-26T10:23:35.933Z,0.80
2023-03-26T10:26:16.284Z,0.68
2023-03-26T10:29:00.296Z,0.60
2023-03-26T10:31:38.582Z,0.50
2023-03-26T10:34:28.673Z,0.40
2023-03-26T10:37:07.704Z,0.80
2023-03-26T10:39:56.616Z,1.13
2023-03-26T10:42:55.790Z,2.28
2023-03-26T10:45:41.346Z,1.00
2023-03-26T10:48:32.039Z,1.17
2023-03-26T10:51:20.985Z,0.40
2023-03-26T10:53:55.977Z,0.80
2023-03-26T10:56:28.419Z,0.70
2023-03-26T10:58:58.247Z,0.40
2023-03-26T11:01:36.897Z,0.68
2023-03-26T11:04:19.439Z,0.80
2023-03-26T11:06:53.874Z,0.70
2023-03-26T11:09:32.113Z,1.00
2023-03-26T11:12:25.449Z,1.33
2023-03-26T11:15:03.402Z,1.42
2023-03-26T11:17:44.649Z,1.50
2023-03-26T11:20:17.455Z,2.03
2023-03-26T11:22:59.881Z,2.00
2023-03-26T11:25:36.307Z,0.93
2023-03-26T11:28:16.044Z,1.67
2023-03-26T11:30:49.647Z,2.28
2023-03-26T11:33:22.137Z,2.13
2023-03-26T11:35:52.906Z,2.17
2023-03-26T11:38:26.519Z,1.80
2023-03-26T11:40:58.626Z,1.83
2023-03-26T11:43:31.373Z,1.77
2023-03-26T11:46:00.575Z,1.20
2023-03-26T11:48:34.232Z,0.73
2023-03-26T11:51:07.571Z,0.87
2023-03-26T11:53:38.937Z,0.73
2023-03-26T11:56:15.239Z,0.60
2023-03-26T11:58:48.681Z,0.60
2023-03-26T12:01:30.188Z,0.50
2023-03-26T12:04:00.012Z,0.60
2023-03-26T12:06:33.006Z,0.40
2023-03-26T12:09:01.148Z,0.45
2023-03-26T12:11:35.412Z,0.70
2023-03-26T12:14:06.081Z,0.43
2023-03-26T12:16:36.060Z,0.30
2023-03-26T12:19:08.275Z,0.60
2023-03-26T12:21:46.880Z,0.25
2023-03-26T12:24:29.412Z,1.67
2023-03-26T12:27:20.258Z,0.85
2023-03-26T12:29:52.551Z,0.60
2023-03-26T12:32:20.190Z,0.50
2023-03-26T12:34:47.882Z,0.38
2023-03-26T12:37:37.328Z,0.50
2023-03-26T12:40:16.075Z,0.38
2023-03-26T12:44:54.026Z,0.63
2023-03-26T12:45:44.371Z,0.30
2023-03-26T12:48:15.726Z,0.35
2023-03-26T12:50:55.296Z,0.40
2023-03-26T12:53:38.977Z,0.55
2023-03-26T12:56:21.987Z,0.40
2023-03-26T12:59:06.094Z,0.60
2023-03-26T13:01:55.605Z,0.52
2023-03-26T13:05:05.523Z,0.40
2023-03-26T13:07:52.282Z,0.43
2023-03-26T13:10:49.702Z,0.50
2023-03-26T13:13:44.149Z,0.40
2023-03-26T13:16:21.847Z,0.32
2023-03-26T13:18:56.988Z,0.20
2023-03-26T13:21:38.353Z,0.40
2023-03-26T13:24:15.477Z,0.27
2023-03-26T13:26:54.190Z,0.50
2023-03-26T13:29:27.286Z,0.50
2023-03-26T13:32:06.013Z,1.40
2023-03-26T13:34:42.579Z,0.45
2023-03-26T13:37:18.217Z,0.40
2023-03-26T13:39:57.719Z,0.38
2023-03-26T13:42:40.196Z,0.80
2023-03-26T13:45:21.514Z,0.70
2023-03-26T13:47:55.099Z,0.60
2023-03-26T13:50:27.976Z,1.73
2023-03-26T13:53:00.492Z,1.20
2023-03-26T13:55:31.641Z,0.82
2023-03-26T13:58:05.041Z,0.93
2023-03-26T14:00:54.600Z,0.80
2023-03-26T14:03:31.078Z,1.40
2023-03-26T14:06:02.057Z,1.33
2023-03-26T14:08:35.397Z,0.75
2023-03-26T14:11:11.296Z,1.33
2023-03-26T14:13:44.570Z,1.15
2023-03-26T14:16:19.298Z,1.60
2023-03-26T14:18:55.208Z,1.70
2023-03-26T14:21:49.783Z,1.55
2023-03-26T14:24:48.345Z,1.35
2023-03-26T14:27:34.382Z,1.42
2023-03-26T14:30:29.155Z,0.70
2023-03-26T14:33:13.334Z,1.40
2023-03-26T14:35:50.546Z,0.80
2023-03-26T14:38:56.583Z,1.80
2023-03-26T14:41:26.870Z,2.10
2023-03-26T14:44:47.616Z,0.93
2023-03-26T14:47:18.479Z,1.33
2023-03-26T14:50:26.736Z,1.45
2023-03-26T14:53:00.876Z,1.48
2023-03-26T14:56:01.138Z,1.65
2023-03-26T14:59:09.555Z,1.23
2023-03-26T15:01:58.096Z,1.58
2023-03-26T15:04:55.630Z,1.40
2023-03-26T15:07:52.658Z,1.10
2023-03-26T15:10:51.016Z,1.10
2023-03-26T15:13:51.436Z,3.57
2023-03-26T15:16:59.299Z,1.75
2023-03-26T15:19:57.526Z,3.17
2023-03-26T15:22:57.545Z,2.72
2023-03-26T15:25:58.289Z,3.40
2023-03-26T15:29:04.416Z,2.27
2023-03-26T15:32:00.620Z,1.55
2023-03-26T15:34:51.417Z,1.50
2023-03-26T15:37:48.536Z,0.70
2023-03-26T15:40:30.284Z,0.40
2023-03-26T15:43:09.885Z,0.50
2023-03-26T15:45:39.468Z,1.35
2023-03-26T15:48:35.334Z,1.65
2023-03-26T15:51:17.305Z,0.82
2023-03-26T15:53:53.918Z,0.70
2023-03-26T15:56:32.742Z,1.93
2023-03-26T15:59:09.076Z,1.25
2023-03-26T16:01:49.438Z,2.00
2023-03-26T16:04:30.460Z,1.05
2023-03-26T16:07:03.481Z,1.20
2023-03-26T16:09:57.095Z,0.80
2023-03-26T16:12:31.342Z,0.77
2023-03-26T16:15:30.979Z,0.52
2023-03-26T16:18:25.948Z,0.47
2023-03-26T16:20:55.902Z,0.82
2023-03-26T16:23:30.748Z,1.37
2023-03-26T16:26:12.286Z,0.57
2023-03-26T16:29:02.229Z,0.50
2023-03-26T16:31:38.701Z,0.60
2023-03-26T16:34:29.328Z,1.10
2023-03-26T16:37:00.001Z,0.90
2023-03-26T16:39:41.353Z,0.60
2023-03-26T16:42:43.111Z,0.80
2023-03-26T16:45:20.459Z,0.80
2023-03-26T16:47:56.392Z,1.85
2023-03-26T16:50:31.279Z,1.93
2023-03-26T16:53:21.209Z,2.33
2023-03-26T16:56:00.000Z,1.65
2023-03-26T16:58:34.254Z,1.85
2023-03-26T17:01:09.184Z,1.75
2023-03-26T17:03:54.009Z,1.23
2023-03-26T17:06:34.685Z,2.40
2023-03-26T17:09:10.656Z,3.10
2023-03-26T17:11:56.886Z,3.75
2023-03-26T17:14:36.863Z,3.65
2023-03-26T17:17:33.858Z,2.80
2023-03-26T17:20:12.687Z,2.40
2023-03-26T17:22:44.219Z,2.90
2023-03-26T17:25:27.002Z,3.03
2023-03-26T17:28:12.258Z,2.78
2023-03-26T17:30:55.323Z,2.73
2023-03-26T17:33:30.076Z,2.20
2023-03-26T17:36:30.692Z,1.65
2023-03-26T17:39:02.918Z,1.27
2023-03-26T17:41:56.137Z,1.90
2023-03-26T17:44:38.595Z,3.67
2023-03-26T17:47:15.349Z,2.75
2023-03-26T17:49:45.317Z,2.15
2023-03-26T17:52:20.760Z,15.57
2023-03-26T17:54:50.460Z,14.27
2023-03-26T17:57:23.699Z,7.23
2023-03-26T17:59:57.644Z,7.22
2023-03-26T18:02:35.444Z,7.15
2023-03-26T18:05:05.969Z,5.50
2023-03-26T18:08:08.216Z,5.68
2023-03-26T18:11:12.458Z,7.57
2023-03-26T18:14:19.130Z,7.88
2023-03-26T18:16:49.497Z,6.82
2023-03-26T18:19:19.355Z,6.85
2023-03-26T18:21:50.595Z,7.40
2023-03-26T18:24:24.529Z,7.73
2023-03-26T18:26:58.499Z,6.95
2023-03-26T18:29:28.735Z,6.75
2023-03-26T18:32:00.715Z,6.90
2023-03-26T18:34:31.530Z,7.22
2023-03-26T18:37:11.368Z,9.97
2023-03-26T18:39:40.597Z,9.25
2023-03-26T18:42:22.691Z,10.00
2023-03-26T18:44:53.252Z,9.35
2023-03-26T18:47:21.777Z,6.97
2023-03-26T18:49:54.888Z,5.83
2023-03-26T18:52:23.633Z,4.45
2023-03-26T18:54:55.115Z,2.67
2023-03-26T18:57:26.019Z,2.25
2023-03-26T18:59:56.669Z,4.20
2023-03-26T19:02:27.063Z,4.77
2023-03-26T19:04:56.802Z,2.75
2023-03-26T19:07:27.213Z,3.72
2023-03-26T19:09:57.750Z,2.13
2023-03-26T19:12:31.066Z,2.13
2023-03-26T19:15:05.120Z,1.60
2023-03-26T19:17:38.032Z,0.90
2023-03-26T19:20:10.337Z,1.40
2023-03-26T19:22:41.356Z,0.73
2023-03-26T19:25:21.698Z,1.02
2023-03-26T19:27:50.498Z,1.20
2023-03-26T19:30:28.643Z,0.73
2023-03-26T19:33:12.137Z,0.80
2023-03-26T19:35:42.794Z,0.80
2023-03-26T19:38:26.402Z,1.48
2023-03-26T19:40:57.607Z,5.10
2023-03-26T19:43:26.881Z,2.95
2023-03-26T19:46:00.508Z,1.70
2023-03-26T19:48:45.646Z,1.75
2023-03-26T19:51:21.612Z,0.80
2023-03-26T19:53:54.301Z,1.43
2023-03-26T19:56:23.876Z,0.98
2023-03-26T19:58:52.024Z,1.92
2023-03-26T20:01:21.274Z,1.85
2023-03-26T20:03:51.692Z,2.20
2023-03-26T20:06:30.716Z,1.33
2023-03-26T20:09:02.292Z,1.50
2023-03-26T20:11:36.873Z,1.55
2023-03-26T20:14:12.904Z,1.58
2023-03-26T20:16:42.210Z,1.25
2023-03-26T20:19:14.286Z,1.73
2023-03-26T20:21:42.504Z,0.80
2023-03-26T20:24:13.104Z,0.90
2023-03-26T20:26:42.529Z,0.60
2023-03-26T20:29:10.341Z,0.88
2023-03-26T20:31:39.656Z,1.40
2023-03-26T20:34:13.612Z,0.60
2023-03-26T20:36:41.530Z,0.50
2023-03-26T20:39:09.731Z,0.40
2023-03-26T20:41:44.892Z,0.80
2023-03-26T20:44:15.720Z,1.37
2023-03-26T20:46:44.611Z,0.98
2023-03-26T20:49:15.096Z,0.55
2023-03-26T20:51:43.802Z,0.60
2023-03-26T20:54:16.424Z,0.50
2023-03-26T20:56:45.611Z,0.50
2023-03-26T20:59:17.953Z,0.35
2023-03-26T21:01:47.042Z,0.70
2023-03-26T21:04:14.848Z,0.90
2023-03-26T21:06:43.383Z,0.80
2023-03-26T21:09:17.503Z,0.30
2023-03-26T21:12:00.549Z,0.40
2023-03-26T21:14:33.429Z,0.30
2023-03-26T21:17:02.477Z,0.38
2023-03-26T21:19:30.717Z,0.30
2023-03-26T21:22:17.966Z,0.20
2023-03-26T21:25:19.985Z,0.40
2023-03-26T21:27:57.458Z,0.35
2023-03-26T21:30:25.737Z,0.20
2023-03-26T21:32:54.252Z,0.40
2023-03-26T21:35:22.835Z,0.20
2023-03-26T21:37:51.446Z,0.40
2023-03-26T21:40:21.029Z,0.43
2023-03-26T21:42:52.859Z,0.43
2023-03-26T21:45:22.526Z,0.70
2023-03-26T21:47:51.123Z,0.20
2023-03-26T21:50:22.264Z,0.30
2023-03-26T21:52:51.053Z,0.30
2023-03-26T21:55:20.280Z,0.50
2023-03-26T21:58:16.484Z,0.38
2023-03-26T22:00:57.408Z,0.40
2023-03-26T22:03:32.635Z,0.30
2023-03-26T22:06:04.421Z,0.30
2023-03-26T22:08:36.631Z,0.40
2023-03-26T22:11:04.904Z,0.50
2023-03-26T22:13:36.765Z,0.30
2023-03-26T22:16:05.741Z,0.47
2023-03-26T22:18:33.939Z,0.52
2023-03-26T22:21:01.872Z,0.40
2023-03-26T22:23:34.334Z,0.50
2023-03-26T22:26:02.104Z,0.47
2023-03-26T22:28:30.769Z,0.80
2023-03-26T22:31:00.251Z,0.40
2023-03-26T22:33:28.094Z,0.30
2023-03-26T22:35:56.913Z,0.30
2023-03-26T22:38:24.597Z,0.40
2023-03-26T22:40:56.793Z,0.20
2023-03-26T22:43:24.607Z,0.60
2023-03-26T22:45:53.654Z,0.50
2023-03-26T22:48:24.091Z,0.50
2023-03-26T22:50:58.952Z,0.37
2023-03-26T22:53:26.598Z,0.30
2023-03-26T22:55:54.296Z,0.30
2023-03-26T22:58:22.206Z,0.40
2023-03-26T23:00:51.887Z,0.35
2023-03-26T23:03:35.117Z,0.30
2023-03-26T23:06:05.405Z,0.30
2023-03-26T23:08:35.008Z,0.38
2023-03-26T23:11:03.781Z,0.30
2023-03-26T23:13:32.079Z,0.20
2023-03-26T23:15:59.734Z,0.40
2023-03-26T23:18:30.022Z,0.40
2023-03-26T23:20:58.963Z,0.30
2023-03-26T23:23:29.053Z,0.38
2023-03-26T23:25:58.743Z,0.38
2023-03-26T23:28:27.224Z,0.40
2023-03-26T23:30:55.679Z,0.40
2023-03-26T23:33:25.578Z,0.30
2023-03-26T23:35:57.866Z,0.30
2023-03-26T23:38:27.944Z,0.50
2023-03-26T23:41:15.528Z,0.40
2023-03-26T23:43:53.784Z,0.35
2023-03-26T23:46:23.694Z,0.32
2023-03-26T23:48:52.169Z,0.22
2023-03-26T23:51:22.245Z,0.30
2023-03-26T23:53:50.237Z,0.27
2023-03-26T23:56:18.363Z,0.50
2023-03-26T23:58:46.331Z,0.30
